Time;durP1;ratioP1;P1;durP2;ratioP2;P2;SDS_P1;SDS_P2;PMS_P1;PMS_P2;Temp;Humidity;BMP_temperature;BMP_pressure;BME280_temperature;BME280_humidity;BME280_pressure;Samples;Min_cycle;Max_cycle;Signal;HPM_P1;HPM_P2
2022/01/11 00:00:57;;;;;;;11.20;4.43;;;7.90;98.40;;;;;;5000437;28;20038;-50
2022/01/11 00:03:23;;;;;;;11.73;5.32;;;7.80;98.30;;;;;;5004579;28;20038;-50
2022/01/11 00:08:18;;;;;;;11.75;4.90;;;7.80;98.40;;;;;;5002828;28;20061;-50
2022/01/11 00:10:54;;;;;;;15.95;5.97;;;7.90;98.40;;;;;;5002996;28;20033;-50
2022/01/11 00:13:20;;;;;;;16.20;5.38;;;7.80;98.30;;;;;;5001958;28;20038;-50
2022/01/11 00:15:47;;;;;;;19.33;6.18;;;7.80;98.40;;;;;;5004363;28;20026;-50
2022/01/11 00:18:13;;;;;;;14.60;4.85;;;7.80;98.40;;;;;;5005185;28;20125;-50
2022/01/11 00:20:40;;;;;;;20.42;5.80;;;7.90;98.40;;;;;;5001834;28;20026;-50
2022/01/11 00:25:38;;;;;;;12.52;5.32;;;7.80;98.40;;;;;;5008367;28;20458;-50
2022/01/11 00:28:05;;;;;;;15.80;5.30;;;7.80;98.40;;;;;;5003657;28;20034;-50
2022/01/11 00:30:34;;;;;;;15.57;5.45;;;7.80;98.70;;;;;;5004383;28;20040;-50
2022/01/11 00:33:03;;;;;;;20.67;6.47;;;7.90;98.30;;;;;;5001829;28;20042;-50
2022/01/11 00:35:39;;;;;;;17.02;5.90;;;7.80;98.40;;;;;;5002050;28;20464;-50
2022/01/11 00:38:06;;;;;;;11.75;5.93;;;7.90;98.40;;;;;;5003421;28;20064;-50
2022/01/11 00:40:32;;;;;;;9.43;4.93;;;7.80;98.40;;;;;;5002190;28;20105;-51
2022/01/11 00:42:59;;;;;;;15.93;6.13;;;7.80;98.40;;;;;;5001331;28;20447;-51
2022/01/11 00:45:26;;;;;;;9.25;5.30;;;7.90;98.40;;;;;;5002282;28;20042;-51
2022/01/11 00:47:53;;;;;;;16.13;6.32;;;7.80;98.20;;;;;;5004411;28;20514;-51
2022/01/11 00:50:19;;;;;;;16.40;5.30;;;7.80;98.30;;;;;;5002532;28;20476;-51
2022/01/11 00:52:45;;;;;;;11.75;6.18;;;7.80;98.40;;;;;;5001785;28;20034;-50
2022/01/11 00:55:11;;;;;;;15.23;6.35;;;7.80;98.40;;;;;;5004104;28;20460;-51
2022/01/11 00:57:36;;;;;;;15.25;5.90;;;7.80;98.30;;;;;;5001404;28;20035;-50
2022/01/11 01:00:08;;;;;;;17.38;6.20;;;7.80;98.40;;;;;;5001812;28;20516;-50
2022/01/11 01:02:34;;;;;;;13.75;6.00;;;7.80;98.40;;;;;;4999989;28;20121;-50
2022/01/11 01:04:59;;;;;;;21.52;5.97;;;7.80;98.40;;;;;;5003810;28;20467;-50
2022/01/11 01:07:25;;;;;;;14.75;5.07;;;7.80;98.30;;;;;;5004892;28;20026;-50
2022/01/11 01:10:26;;;;;;;17.00;5.10;;;7.80;98.30;;;;;;5003240;28;20021;-50
2022/01/11 01:12:43;;;;;;;12.57;5.15;;;7.80;98.40;;;;;;5003070;28;20689;-51
2022/01/11 01:15:09;;;;;;;15.93;4.97;;;7.80;98.30;;;;;;5001133;28;20096;-50
2022/01/11 01:17:34;;;;;;;12.13;5.88;;;7.80;98.40;;;;;;5002354;28;20042;-51
2022/01/11 01:20:00;;;;;;;15.73;6.05;;;7.80;98.60;;;;;;5003547;28;20028;-50
2022/01/11 01:22:25;;;;;;;17.10;5.40;;;7.80;98.40;;;;;;5001001;28;20019;-50
2022/01/11 01:24:51;;;;;;;13.82;5.55;;;7.80;98.40;;;;;;5005226;28;20026;-50
2022/01/11 01:27:17;;;;;;;13.43;5.13;;;7.80;98.40;;;;;;5001672;28;20085;-50
2022/01/11 01:29:42;;;;;;;12.05;5.47;;;7.80;98.30;;;;;;5003690;28;20380;-50
2022/01/11 01:32:09;;;;;;;8.98;4.50;;;7.80;98.30;;;;;;5001283;28;20449;-51
2022/01/11 01:34:35;;;;;;;14.18;5.43;;;7.80;98.30;;;;;;5001430;28;20030;-50
2022/01/11 01:37:01;;;;;;;12.63;6.05;;;7.80;98.30;;;;;;5000460;28;20034;-50
2022/01/11 01:39:27;;;;;;;17.20;6.00;;;7.70;98.20;;;;;;5001933;28;20112;-50
2022/01/11 01:41:53;;;;;;;12.52;4.72;;;7.70;98.30;;;;;;5001712;28;20018;-50
2022/01/11 01:44:19;;;;;;;11.98;4.95;;;7.70;98.40;;;;;;5001372;28;20041;-50
2022/01/11 01:46:45;;;;;;;12.55;5.45;;;7.70;98.30;;;;;;5002986;28;20034;-50
2022/01/11 01:49:16;;;;;;;17.30;5.35;;;7.70;98.30;;;;;;5003062;28;20219;-51
2022/01/11 01:51:43;;;;;;;13.73;5.88;;;7.70;98.40;;;;;;5001731;28;20453;-51
2022/01/11 01:54:09;;;;;;;12.52;5.50;;;7.80;98.40;;;;;;5000863;28;20042;-50
2022/01/11 01:56:35;;;;;;;11.48;5.20;;;7.70;98.20;;;;;;5000590;28;20543;-50
2022/01/11 01:59:02;;;;;;;17.60;5.47;;;7.80;98.30;;;;;;5000901;28;20483;-51
2022/01/11 02:01:28;;;;;;;18.58;5.95;;;7.70;98.30;;;;;;4999010;28;20030;-50
2022/01/11 02:03:53;;;;;;;14.55;5.18;;;7.70;98.30;;;;;;5001829;28;20338;-50
2022/01/11 02:06:20;;;;;;;16.83;5.80;;;7.70;98.30;;;;;;5004187;28;20088;-50
2022/01/11 02:08:48;;;;;;;9.45;4.85;;;7.70;98.40;;;;;;5000388;28;20050;-51
2022/01/11 02:11:18;;;;;;;11.10;5.22;;;7.70;98.30;;;;;;5000591;28;20027;-51
2022/01/11 02:13:45;;;;;;;8.07;4.80;;;7.70;98.30;;;;;;5002967;28;20034;-50
2022/01/11 02:16:12;;;;;;;12.95;5.00;;;7.80;98.40;;;;;;4999169;28;20523;-50
2022/01/11 02:18:40;;;;;;;13.23;4.45;;;7.80;98.30;;;;;;5002630;28;20037;-50
2022/01/11 02:21:06;;;;;;;14.48;5.43;;;7.80;98.30;;;;;;5001315;28;20026;-51
2022/01/11 02:23:32;;;;;;;11.38;4.90;;;7.70;98.30;;;;;;5000014;28;20061;-51
2022/01/11 02:25:58;;;;;;;11.52;4.65;;;7.80;98.50;;;;;;5001883;28;20095;-50
2022/01/11 02:28:26;;;;;;;18.27;5.43;;;7.80;98.50;;;;;;5000628;28;20449;-50
2022/01/11 02:30:53;;;;;;;12.80;4.72;;;7.80;98.30;;;;;;5000404;28;20034;-51
2022/01/11 02:33:33;;;;;;;9.35;3.92;;;7.70;98.30;;;;;;4999344;28;20038;-50
2022/01/11 02:36:01;;;;;;;10.27;4.95;;;7.70;98.30;;;;;;5004205;28;20284;-50
2022/01/11 02:38:27;;;;;;;19.58;5.22;;;7.70;98.40;;;;;;5001372;28;20026;-50
2022/01/11 02:40:52;;;;;;;12.95;5.03;;;7.80;98.40;;;;;;5000109;28;20034;-50
2022/01/11 02:43:18;;;;;;;23.52;5.95;;;7.70;98.40;;;;;;5002850;28;20030;-50
2022/01/11 02:45:44;;;;;;;10.25;5.03;;;7.80;98.30;;;;;;5000578;28;20120;-50
2022/01/11 02:48:10;;;;;;;14.68;4.35;;;7.70;98.30;;;;;;5004708;28;20025;-51
2022/01/11 02:50:36;;;;;;;12.30;5.63;;;7.70;98.30;;;;;;5000417;28;20525;-51
2022/01/11 02:53:02;;;;;;;9.65;4.93;;;7.80;98.50;;;;;;5000679;28;20038;-50
2022/01/11 02:55:28;;;;;;;17.50;5.68;;;7.80;98.30;;;;;;4999107;28;20033;-50
2022/01/11 02:57:55;;;;;;;13.48;5.63;;;7.70;98.30;;;;;;5000603;28;20026;-51
2022/01/11 03:00:23;;;;;;;17.42;4.88;;;7.70;98.40;;;;;;4999291;28;20036;-50
2022/01/11 03:02:50;;;;;;;18.23;5.30;;;7.70;98.30;;;;;;4998929;28;20101;-51
2022/01/11 03:05:15;;;;;;;14.60;5.25;;;7.70;98.40;;;;;;5003622;28;20030;-51
2022/01/11 03:07:42;;;;;;;10.90;5.32;;;7.80;98.50;;;;;;4999782;28;20037;-51
2022/01/11 03:10:44;;;;;;;15.45;4.63;;;7.80;98.30;;;;;;5001548;28;20137;-51
2022/01/11 03:13:04;;;;;;;16.48;4.50;;;7.80;98.50;;;;;;5001728;28;20054;-50
2022/01/11 03:15:30;;;;;;;12.75;5.43;;;7.80;98.30;;;;;;4998019;28;20077;-50
2022/01/11 03:17:56;;;;;;;12.88;5.07;;;7.70;98.30;;;;;;5000656;28;20033;-50
2022/01/11 03:20:21;;;;;;;11.90;5.57;;;7.80;98.40;;;;;;4999517;28;20057;-50
2022/01/11 03:22:48;;;;;;;10.90;4.88;;;7.70;98.30;;;;;;4999054;28;20026;-50
2022/01/11 03:25:13;;;;;;;12.13;4.70;;;7.80;98.30;;;;;;4997968;28;20026;-51
2022/01/11 03:27:40;;;;;;;20.77;5.47;;;7.80;98.40;;;;;;5005646;28;20048;-50
2022/01/11 03:30:08;;;;;;;16.40;5.25;;;7.80;98.40;;;;;;4999923;28;20036;-50
2022/01/11 03:32:33;;;;;;;11.93;5.28;;;7.70;98.30;;;;;;5001012;28;20405;-50
2022/01/11 03:34:59;;;;;;;9.85;4.95;;;7.70;98.30;;;;;;4999115;28;20483;-50
2022/01/11 03:37:25;;;;;;;12.43;5.30;;;7.70;98.30;;;;;;4999285;28;20022;-50
2022/01/11 03:39:50;;;;;;;14.27;5.03;;;7.70;98.30;;;;;;5001228;28;20022;-50
2022/01/11 03:42:16;;;;;;;13.93;5.25;;;7.70;98.20;;;;;;4998425;28;20025;-50
2022/01/11 03:44:42;;;;;;;10.77;4.97;;;7.70;98.20;;;;;;5000873;28;20034;-50
2022/01/11 03:47:07;;;;;;;19.10;6.07;;;7.70;98.20;;;;;;5001184;28;20526;-50
2022/01/11 03:49:33;;;;;;;8.98;4.43;;;7.70;98.30;;;;;;5002319;28;20033;-51
2022/01/11 03:51:59;;;;;;;18.42;6.40;;;7.70;98.20;;;;;;4999649;28;20034;-50
2022/01/11 03:54:28;;;;;;;17.38;5.30;;;7.70;98.10;;;;;;4998742;28;20121;-51
2022/01/11 03:56:54;;;;;;;16.17;6.15;;;7.70;98.20;;;;;;4999474;28;20446;-51
2022/01/11 03:59:20;;;;;;;12.07;5.43;;;7.70;98.20;;;;;;4999350;28;20069;-51
2022/01/11 04:01:47;;;;;;;12.10;5.68;;;7.70;98.20;;;;;;4997998;28;20057;-51
2022/01/11 04:04:13;;;;;;;13.65;6.05;;;7.70;98.20;;;;;;5000372;28;20038;-50
2022/01/11 04:06:39;;;;;;;9.40;5.43;;;7.70;98.20;;;;;;5003087;28;20022;-51
2022/01/11 04:09:06;;;;;;;17.60;5.47;;;7.70;98.30;;;;;;5007301;28;20361;-50
2022/01/11 04:11:32;;;;;;;15.90;5.43;;;7.70;98.30;;;;;;5002553;28;20125;-51
2022/01/11 04:13:58;;;;;;;13.65;5.82;;;7.70;98.30;;;;;;5005511;28;20125;-50
2022/01/11 04:16:24;;;;;;;9.95;4.88;;;7.70;98.20;;;;;;5001293;28;20165;-51
2022/01/11 04:18:49;;;;;;;16.70;5.55;;;7.70;98.30;;;;;;5003022;28;20357;-50
2022/01/11 04:21:16;;;;;;;11.00;5.57;;;7.70;98.10;;;;;;5001370;28;20018;-51
2022/01/11 04:23:41;;;;;;;13.63;6.05;;;7.70;98.20;;;;;;5004662;28;20021;-50
2022/01/11 04:26:07;;;;;;;15.90;5.80;;;7.70;98.20;;;;;;5003894;28;20100;-51
2022/01/11 04:28:32;;;;;;;13.80;5.68;;;7.70;98.30;;;;;;5001862;28;20041;-50
2022/01/11 04:31:00;;;;;;;14.40;5.70;;;7.70;98.20;;;;;;5005308;28;20034;-50
2022/01/11 04:33:30;;;;;;;12.52;4.72;;;7.70;98.20;;;;;;5001464;28;20041;-51
2022/01/11 04:35:58;;;;;;;14.18;6.10;;;7.70;98.20;;;;;;5002407;28;20026;-50
2022/01/11 04:38:29;;;;;;;12.95;5.40;;;7.70;98.30;;;;;;5001724;28;20057;-50
2022/01/11 04:40:55;;;;;;;15.18;5.93;;;7.70;98.20;;;;;;5002453;28;20650;-50
2022/01/11 04:43:21;;;;;;;14.82;5.88;;;7.70;98.20;;;;;;5002334;28;20038;-51
2022/01/11 04:45:49;;;;;;;19.15;6.18;;;7.70;98.30;;;;;;5003912;28;20081;-51
2022/01/11 04:48:15;;;;;;;12.18;5.88;;;7.70;98.10;;;;;;5005041;28;20037;-50
2022/01/11 04:50:42;;;;;;;9.45;4.97;;;7.70;98.30;;;;;;5004442;28;20022;-50
2022/01/11 04:53:08;;;;;;;14.18;5.65;;;7.70;98.20;;;;;;5000716;28;20041;-50
2022/01/11 04:55:33;;;;;;;18.45;6.90;;;7.70;98.20;;;;;;5003344;28;20030;-50
2022/01/11 04:58:00;;;;;;;14.25;5.47;;;7.70;98.30;;;;;;5003242;28;20032;-50
2022/01/11 05:00:26;;;;;;;12.15;5.07;;;7.70;98.20;;;;;;5001867;28;20081;-50
2022/01/11 05:02:56;;;;;;;10.65;5.10;;;7.70;98.30;;;;;;5003569;28;20038;-50
2022/01/11 05:05:23;;;;;;;11.05;5.72;;;7.70;98.20;;;;;;5001299;28;20037;-51
2022/01/11 05:07:48;;;;;;;11.27;5.28;;;7.70;98.20;;;;;;5004573;28;20052;-50
2022/01/11 05:10:14;;;;;;;17.88;5.82;;;7.70;98.20;;;;;;5001597;28;20512;-50
2022/01/11 05:12:40;;;;;;;16.88;6.50;;;7.70;98.20;;;;;;4999286;28;20031;-50
2022/01/11 05:15:10;;;;;;;12.05;5.47;;;7.70;98.40;;;;;;5005720;28;20164;-50
2022/01/11 05:17:36;;;;;;;;;;;7.70;98.20;;;;;;5011453;28;20349;-51
2022/01/11 05:20:04;;;;;;;13.25;5.30;;;7.70;98.20;;;;;;5007108;28;20123;-50
2022/01/11 05:22:30;;;;;;;14.02;5.13;;;7.70;98.30;;;;;;5004079;28;20030;-50
2022/01/11 05:24:56;;;;;;;13.48;5.55;;;7.70;98.30;;;;;;5002964;28;20018;-51
2022/01/11 05:27:21;;;;;;;15.23;5.95;;;7.80;98.20;;;;;;5004524;28;20058;-50
2022/01/11 05:29:47;;;;;;;14.63;5.82;;;7.70;98.20;;;;;;5001507;28;20026;-50
2022/01/11 05:32:12;;;;;;;18.08;6.32;;;7.70;98.20;;;;;;5002406;28;20022;-50
2022/01/11 05:34:38;;;;;;;15.07;5.50;;;7.70;98.30;;;;;;5000233;28;20558;-50
2022/01/11 05:37:04;;;;;;;9.77;5.30;;;7.70;98.20;;;;;;5006677;28;20349;-50
2022/01/11 05:39:29;;;;;;;12.52;5.43;;;7.70;98.20;;;;;;5000256;28;20034;-50
2022/01/11 05:41:55;;;;;;;13.88;5.30;;;7.70;98.20;;;;;;5000198;28;20143;-51
2022/01/11 05:44:21;;;;;;;10.52;4.95;;;7.70;98.20;;;;;;5003508;28;20022;-51
2022/01/11 05:46:47;;;;;;;14.43;6.25;;;7.70;98.20;;;;;;5001174;28;20026;-50
2022/01/11 05:49:13;;;;;;;13.10;5.57;;;7.70;98.30;;;;;;5001016;28;20060;-50
2022/01/11 05:51:39;;;;;;;14.90;5.10;;;7.80;98.40;;;;;;5007159;28;20026;-51
2022/01/11 05:54:04;;;;;;;15.35;5.57;;;7.80;98.30;;;;;;5008535;28;20038;-50
2022/01/11 05:56:30;;;;;;;12.93;5.80;;;7.80;98.30;;;;;;5009015;28;20026;-50
2022/01/11 05:58:55;;;;;;;11.93;5.07;;;7.80;98.40;;;;;;5008546;28;20030;-50
2022/01/11 06:01:23;;;;;;;12.07;5.88;;;7.80;98.40;;;;;;5008118;28;20061;-50
2022/01/11 06:03:49;;;;;;;11.23;5.03;;;7.80;98.20;;;;;;5004795;28;20046;-50
2022/01/11 06:06:14;;;;;;;15.27;5.13;;;7.70;98.20;;;;;;4999589;28;20030;-50
2022/01/11 06:08:40;;;;;;;11.82;5.25;;;7.70;98.30;;;;;;5002742;28;20056;-51
2022/01/11 06:11:07;;;;;;;14.95;6.43;;;7.70;98.30;;;;;;5002406;28;20037;-50
2022/01/11 06:13:33;;;;;;;13.13;5.38;;;7.70;98.30;;;;;;5002768;28;20100;-49
2022/01/11 06:15:59;;;;;;;11.07;5.53;;;7.70;98.30;;;;;;5008063;28;20014;-49
2022/01/11 06:18:24;;;;;;;14.63;5.50;;;7.70;98.10;;;;;;5006930;28;20556;-49
2022/01/11 06:20:50;;;;;;;16.23;5.95;;;7.70;98.00;;;;;;5004669;28;20025;-49
2022/01/11 06:23:16;;;;;;;13.07;5.65;;;7.70;97.90;;;;;;5008139;28;20057;-49
2022/01/11 06:25:41;;;;;;;14.65;6.22;;;7.80;98.10;;;;;;5008806;28;20026;-49
2022/01/11 06:28:07;;;;;;;14.68;6.40;;;7.70;97.90;;;;;;5001316;28;20076;-49
2022/01/11 06:30:33;;;;;;;10.73;4.75;;;7.70;98.00;;;;;;5005946;28;20300;-49
2022/01/11 06:32:58;;;;;;;17.95;6.03;;;7.70;98.10;;;;;;5005080;28;20029;-49
2022/01/11 06:35:24;;;;;;;15.82;6.38;;;7.80;98.10;;;;;;5003595;28;20053;-49
2022/01/11 06:37:50;;;;;;;12.45;5.38;;;7.70;98.00;;;;;;5002835;28;20026;-49
2022/01/11 06:40:18;;;;;;;11.48;5.72;;;7.80;98.20;;;;;;5007055;28;20068;-49
2022/01/11 06:42:48;;;;;;;14.88;6.28;;;7.70;98.00;;;;;;5010040;28;20034;-49
2022/01/11 06:45:15;;;;;;;14.25;5.22;;;7.70;98.00;;;;;;5010155;28;20022;-49
2022/01/11 06:47:41;;;;;;;12.15;6.00;;;7.70;98.10;;;;;;5009713;28;20083;-49
2022/01/11 06:50:08;;;;;;;15.32;5.50;;;7.70;98.10;;;;;;5006052;28;20358;-49
2022/01/11 06:52:35;;;;;;;13.25;5.80;;;7.80;98.00;;;;;;5007272;28;20037;-49
2022/01/11 06:55:02;;;;;;;21.13;6.00;;;7.80;98.20;;;;;;5009361;28;20039;-49
2022/01/11 06:57:28;;;;;;;20.13;6.63;;;7.80;98.10;;;;;;5009883;28;20010;-49
2022/01/11 06:59:54;;;;;;;17.45;6.32;;;7.70;98.10;;;;;;5010120;28;20030;-49
2022/01/11 07:02:20;;;;;;;9.50;4.75;;;7.70;98.00;;;;;;5006776;28;20100;-49
2022/01/11 07:04:45;;;;;;;8.98;4.60;;;7.70;98.10;;;;;;5005478;28;20460;-49
2022/01/11 07:07:11;;;;;;;15.43;6.25;;;7.80;98.30;;;;;;5010249;28;20022;-49
2022/01/11 07:09:37;;;;;;;11.98;5.80;;;7.80;98.20;;;;;;5010189;28;20022;-49
2022/01/11 07:12:03;;;;;;;13.18;5.88;;;7.80;98.20;;;;;;5008762;28;20033;-49
2022/01/11 07:14:29;;;;;;;14.75;6.05;;;7.80;98.10;;;;;;5008378;28;20129;-49
2022/01/11 07:16:55;;;;;;;10.10;5.45;;;7.80;98.10;;;;;;5009540;28;20137;-49
2022/01/11 07:19:20;;;;;;;15.45;5.70;;;7.80;98.20;;;;;;5007205;28;20043;-49
2022/01/11 07:21:46;;;;;;;12.82;5.60;;;7.80;98.20;;;;;;5008963;28;20014;-48
2022/01/11 07:24:13;;;;;;;17.92;5.22;;;7.80;98.20;;;;;;5008719;28;20022;-49
2022/01/11 07:26:39;;;;;;;12.88;5.22;;;7.80;98.30;;;;;;5010235;28;20325;-49
2022/01/11 07:29:05;;;;;;;14.48;5.55;;;7.80;98.20;;;;;;5008679;28;20050;-49
2022/01/11 07:31:32;;;;;;;14.90;6.25;;;7.80;98.30;;;;;;5006924;28;20153;-49
2022/01/11 07:33:58;;;;;;;14.25;6.38;;;7.80;98.30;;;;;;5008172;28;20081;-49
2022/01/11 07:36:24;;;;;;;13.88;5.75;;;7.80;98.30;;;;;;5009409;28;20103;-49
2022/01/11 07:38:53;;;;;;;12.43;4.70;;;7.80;98.30;;;;;;5009772;28;20057;-49
2022/01/11 07:41:19;;;;;;;15.40;6.37;;;7.80;98.30;;;;;;5012066;28;20048;-49
2022/01/11 07:43:45;;;;;;;11.38;5.93;;;7.80;98.30;;;;;;5013131;28;20445;-49
2022/01/11 07:46:10;;;;;;;10.55;5.13;;;7.80;98.30;;;;;;5007067;28;20026;-49
2022/01/11 07:48:36;;;;;;;13.32;6.32;;;7.80;98.30;;;;;;5010914;28;20050;-49
2022/01/11 07:51:02;;;;;;;14.63;4.82;;;7.80;98.30;;;;;;5011078;28;20189;-49
2022/01/11 07:53:28;;;;;;;16.83;6.25;;;7.80;98.30;;;;;;5011690;28;20124;-49
2022/01/11 07:55:53;;;;;;;13.35;5.47;;;7.80;98.30;;;;;;5011786;28;20110;-49
2022/01/11 07:58:19;;;;;;;9.88;5.18;;;7.80;98.30;;;;;;5012919;28;20470;-49
2022/01/11 08:00:45;;;;;;;13.45;5.57;;;7.80;98.70;;;;;;5013058;28;20463;-48
2022/01/11 08:03:10;;;;;;;9.98;5.05;;;7.80;98.30;;;;;;5009671;28;20045;-48
2022/01/11 08:05:36;;;;;;;16.67;6.35;;;7.80;98.30;;;;;;5010421;28;20026;-49
2022/01/11 08:08:02;;;;;;;14.00;5.90;;;7.80;98.30;;;;;;5012478;28;20026;-49
2022/01/11 08:10:28;;;;;;;9.35;5.35;;;7.80;98.30;;;;;;5013132;28;20050;-49
2022/01/11 08:12:54;;;;;;;15.70;6.05;;;7.80;98.30;;;;;;5012188;28;20077;-49
2022/01/11 08:15:19;;;;;;;13.23;5.78;;;7.80;98.30;;;;;;5007778;28;20516;-49
2022/01/11 08:17:46;;;;;;;11.88;6.00;;;7.80;98.30;;;;;;5012238;28;20084;-49
2022/01/11 08:20:12;;;;;;;11.93;5.93;;;7.80;98.30;;;;;;5010880;28;20041;-49
2022/01/11 08:22:38;;;;;;;13.43;4.68;;;7.80;98.30;;;;;;5011952;28;20030;-49
2022/01/11 08:25:05;;;;;;;12.32;5.68;;;7.80;98.40;;;;;;5009531;28;20465;-49
2022/01/11 08:27:31;;;;;;;20.13;5.55;;;7.80;98.30;;;;;;5012945;28;20022;-49
2022/01/11 08:29:56;;;;;;;12.80;5.85;;;7.80;98.30;;;;;;5010927;28;20033;-49
2022/01/11 08:32:22;;;;;;;13.48;5.47;;;7.80;98.20;;;;;;5011524;28;20022;-49
2022/01/11 08:34:48;;;;;;;16.92;6.50;;;7.80;98.40;;;;;;5008548;28;20505;-49
2022/01/11 08:37:14;;;;;;;16.40;6.00;;;7.80;98.30;;;;;;5011926;28;20484;-49
2022/01/11 08:39:40;;;;;;;14.02;6.28;;;7.80;98.40;;;;;;5011545;28;20357;-49
2022/01/11 08:42:08;;;;;;;14.45;5.90;;;7.80;98.30;;;;;;5011104;28;20026;-49
2022/01/11 08:44:34;;;;;;;13.63;5.65;;;7.80;98.30;;;;;;5012362;28;20041;-49
2022/01/11 08:47:00;;;;;;;14.00;6.30;;;7.70;98.30;;;;;;5011618;28;20456;-48
2022/01/11 08:49:25;;;;;;;14.88;6.63;;;7.80;98.30;;;;;;5010573;28;20018;-48
2022/01/11 08:51:51;;;;;;;18.70;7.03;;;7.70;98.30;;;;;;5002942;28;20148;-49
2022/01/11 08:54:18;;;;;;;13.73;6.28;;;7.80;98.20;;;;;;5009920;28;20452;-49
2022/01/11 08:56:44;;;;;;;17.42;6.35;;;7.80;98.40;;;;;;5012435;28;20022;-49
2022/01/11 08:59:10;;;;;;;14.20;5.97;;;7.80;98.30;;;;;;5010346;28;20475;-49
2022/01/11 09:01:36;;;;;;;9.25;5.50;;;7.80;98.30;;;;;;5009131;28;20472;-49
2022/01/11 09:04:02;;;;;;;12.10;5.40;;;7.80;98.30;;;;;;5008692;28;20018;-49
2022/01/11 09:06:28;;;;;;;15.52;6.90;;;7.80;98.40;;;;;;5007586;28;20515;-49
2022/01/11 09:08:54;;;;;;;11.13;5.38;;;7.80;98.30;;;;;;5010335;28;20110;-49
2022/01/11 09:11:19;;;;;;;10.55;4.97;;;7.80;98.30;;;;;;5011061;28;20356;-49
2022/01/11 09:13:46;;;;;;;18.88;6.05;;;7.80;98.40;;;;;;5009828;28;20372;-49
2022/01/11 09:16:12;;;;;;;25.42;6.03;;;7.80;98.40;;;;;;5011713;28;20041;-49
2022/01/11 09:18:38;;;;;;;14.00;5.53;;;7.80;98.30;;;;;;5011637;28;20030;-49
2022/01/11 09:21:04;;;;;;;17.80;4.78;;;7.80;98.30;;;;;;5009135;28;20057;-49
2022/01/11 09:23:31;;;;;;;12.40;5.05;;;7.80;98.40;;;;;;5010959;28;20115;-49
2022/01/11 09:25:57;;;;;;;10.48;4.55;;;7.80;98.40;;;;;;5011432;28;20026;-48
2022/01/11 09:28:23;;;;;;;16.23;5.60;;;7.80;98.40;;;;;;5011309;28;20037;-49
2022/01/11 09:30:50;;;;;;;11.73;5.35;;;7.80;98.30;;;;;;5011456;28;20026;-49
2022/01/11 09:33:17;;;;;;;13.98;5.47;;;7.80;98.40;;;;;;5010918;28;20388;-49
2022/01/11 09:35:42;;;;;;;16.58;5.35;;;7.80;98.40;;;;;;5009377;28;20026;-49
2022/01/11 09:38:08;;;;;;;10.02;5.50;;;7.80;98.40;;;;;;5011015;28;20052;-49
2022/01/11 09:40:34;;;;;;;9.10;4.97;;;7.80;98.40;;;;;;5009826;28;20441;-49
2022/01/11 09:43:00;;;;;;;10.50;4.93;;;7.80;98.40;;;;;;5010799;28;20109;-49
2022/01/11 09:45:25;;;;;;;12.27;5.20;;;7.80;98.30;;;;;;5009431;28;20029;-49
2022/01/11 09:47:51;;;;;;;13.50;5.45;;;7.80;98.40;;;;;;5011250;28;20029;-49
2022/01/11 09:50:18;;;;;;;10.85;5.30;;;7.80;98.40;;;;;;5009685;28;20029;-49
2022/01/11 09:52:44;;;;;;;12.38;6.18;;;7.80;98.40;;;;;;5010124;28;20084;-49
2022/01/11 09:55:13;;;;;;;15.93;4.93;;;7.80;98.40;;;;;;5010674;28;20037;-49
2022/01/11 09:57:40;;;;;;;10.20;4.63;;;7.80;98.40;;;;;;5009185;28;20025;-49
2022/01/11 10:00:10;;;;;;;13.40;5.47;;;7.80;98.30;;;;;;5008597;28;20075;-49
2022/01/11 10:02:36;;;;;;;9.48;4.82;;;7.90;98.40;;;;;;5007129;28;20040;-49
2022/01/11 10:05:07;;;;;;;10.15;5.22;;;7.90;98.50;;;;;;5008612;28;20038;-49
2022/01/11 10:07:36;;;;;;;10.10;5.22;;;7.90;98.40;;;;;;5008857;28;20034;-49
2022/01/11 10:10:03;;;;;;;10.60;4.25;;;7.80;98.40;;;;;;5010604;28;20029;-49
2022/01/11 10:12:47;;;;;;;10.95;4.57;;;7.90;98.40;;;;;;5006235;28;20045;-49
2022/01/11 10:15:13;;;;;;;9.85;5.00;;;7.90;98.50;;;;;;5004981;28;20120;-50
2022/01/11 10:17:44;;;;;;;11.93;4.97;;;7.90;98.50;;;;;;5005544;28;20109;-49
2022/01/11 10:20:11;;;;;;;11.75;3.90;;;7.90;98.40;;;;;;5006273;28;20026;-49
2022/01/11 10:22:46;;;;;;;12.45;4.63;;;7.90;98.40;;;;;;5005167;28;20052;-49
2022/01/11 10:25:12;;;;;;;9.50;4.78;;;7.90;98.40;;;;;;5005700;28;20346;-49
2022/01/11 10:27:38;;;;;;;10.25;4.25;;;7.90;98.40;;;;;;5005845;28;20037;-49
2022/01/11 10:30:07;;;;;;;9.27;4.63;;;7.90;98.40;;;;;;5009937;28;20412;-49
2022/01/11 10:32:35;;;;;;;10.18;4.70;;;8.00;98.50;;;;;;5003230;28;20087;-49
2022/01/11 10:35:09;;;;;;;10.15;4.63;;;7.90;98.40;;;;;;5009706;28;20052;-49
2022/01/11 10:37:42;;;;;;;11.15;5.22;;;7.90;98.40;;;;;;5007637;28;20026;-49
2022/01/11 10:40:18;;;;;;;8.80;4.63;;;7.90;98.50;;;;;;5008503;28;20053;-49
2022/01/11 10:42:59;;;;;;;7.47;3.95;;;7.90;98.40;;;;;;5009223;28;20091;-49
2022/01/11 10:45:30;;;;;;;13.32;4.18;;;8.00;98.50;;;;;;5009555;28;20038;-49
2022/01/11 10:47:58;;;;;;;10.30;4.60;;;8.00;98.50;;;;;;5007556;28;20512;-49
2022/01/11 10:50:28;;;;;;;8.38;4.40;;;7.90;98.40;;;;;;5009163;28;20030;-49
2022/01/11 10:53:04;;;;;;;7.22;4.13;;;7.90;98.40;;;;;;5009207;28;20026;-49
2022/01/11 10:55:32;;;;;;;14.20;5.15;;;8.00;98.40;;;;;;5009093;28;20469;-49
2022/01/11 10:58:01;;;;;;;9.20;4.28;;;8.00;98.40;;;;;;5009334;28;20044;-49
2022/01/11 11:00:31;;;;;;;11.65;4.63;;;8.00;98.60;;;;;;5007718;28;20346;-49
2022/01/11 11:02:58;;;;;;;6.00;3.40;;;8.00;98.50;;;;;;5008025;28;20037;-49
2022/01/11 11:05:30;;;;;;;7.95;4.07;;;8.00;98.50;;;;;;5009231;28;20036;-50
2022/01/11 11:08:00;;;;;;;7.32;3.90;;;8.00;98.40;;;;;;5007946;28;20598;-49
2022/01/11 11:10:47;;;;;;;6.38;3.85;;;8.00;98.50;;;;;;5009647;28;20026;-49
2022/01/11 11:13:19;;;;;;;10.25;4.68;;;8.00;98.50;;;;;;5007468;28;20100;-50
2022/01/11 11:15:45;;;;;;;7.47;3.63;;;8.00;98.50;;;;;;5012935;28;20034;-49
2022/01/11 11:18:34;;;;;;;6.80;3.80;;;8.00;98.40;;;;;;5012556;28;20032;-51
2022/01/11 11:21:21;;;;;;;8.43;4.03;;;8.00;98.40;;;;;;5010183;28;20038;-50
2022/01/11 11:23:48;;;;;;;6.30;4.28;;;8.00;98.50;;;;;;5011507;28;20280;-49
2022/01/11 11:26:15;;;;;;;11.75;4.95;;;8.10;98.50;;;;;;5012639;28;20034;-49
2022/01/11 11:28:41;;;;;;;6.88;3.97;;;8.10;98.70;;;;;;5013111;28;20050;-49
2022/01/11 11:31:07;;;;;;;10.68;3.10;;;8.10;98.60;;;;;;5011424;28;20038;-50
2022/01/11 11:33:38;;;;;;;5.55;2.88;;;8.10;98.50;;;;;;5012301;28;20177;-50
2022/01/11 11:36:05;;;;;;;3.60;2.38;;;8.10;98.50;;;;;;5010643;28;20373;-50
2022/01/11 11:38:33;;;;;;;6.47;2.30;;;8.10;98.60;;;;;;5012257;28;20121;-50
2022/01/11 11:41:01;;;;;;;4.72;2.17;;;8.10;98.40;;;;;;5013114;28;20463;-50
2022/01/11 11:43:27;;;;;;;3.63;2.63;;;8.10;98.40;;;;;;5011296;28;20030;-49
2022/01/11 11:45:53;;;;;;;2.90;2.10;;;8.10;98.50;;;;;;5008784;28;20049;-50
2022/01/11 11:48:23;;;;;;;5.68;2.38;;;8.10;98.30;;;;;;5010406;28;20048;-50
2022/01/11 11:51:06;;;;;;;5.93;3.30;;;8.10;98.30;;;;;;5011939;28;20037;-50
2022/01/11 11:53:40;;;;;;;6.63;2.85;;;8.10;98.30;;;;;;5010506;28;20037;-49
2022/01/11 11:56:13;;;;;;;2.95;2.05;;;8.10;98.40;;;;;;5012904;28;20239;-50
2022/01/11 11:58:44;;;;;;;7.90;2.38;;;8.10;98.30;;;;;;5007592;28;20109;-49
2022/01/11 12:01:42;;;;;;;4.55;2.55;;;8.10;98.30;;;;;;5011306;28;20045;-50
2022/01/11 12:04:31;;;;;;;6.78;2.50;;;8.10;98.30;;;;;;5011337;28;20022;-50
2022/01/11 12:07:12;;;;;;;4.53;2.20;;;8.10;98.30;;;;;;5007638;28;20034;-50
2022/01/11 12:09:44;;;;;;;8.07;2.22;;;8.10;98.20;;;;;;5010600;28;20033;-50
2022/01/11 12:12:16;;;;;;;5.28;2.58;;;8.10;98.20;;;;;;5011335;28;20365;-49
2022/01/11 12:14:42;;;;;;;2.42;2.05;;;8.10;98.20;;;;;;5011648;28;20477;-50
2022/01/11 12:17:18;;;;;;;4.82;2.78;;;8.10;98.10;;;;;;5012051;28;20434;-50
2022/01/11 12:19:48;;;;;;;3.38;2.15;;;8.10;98.20;;;;;;5011711;28;20113;-49
2022/01/11 12:22:24;;;;;;;5.32;2.95;;;8.10;98.10;;;;;;5007902;28;20108;-49
2022/01/11 12:24:51;;;;;;;3.97;2.45;;;8.10;98.20;;;;;;5010527;28;20351;-50
2022/01/11 12:27:21;;;;;;;5.43;2.75;;;8.10;98.10;;;;;;5010727;28;20101;-49
2022/01/11 12:30:08;;;;;;;5.65;3.63;;;8.10;98.00;;;;;;5011753;28;20034;-50
2022/01/11 12:32:38;;;;;;;3.78;2.95;;;8.10;98.10;;;;;;5009698;28;20040;-49
2022/01/11 12:35:11;;;;;;;6.38;2.92;;;8.10;98.00;;;;;;5011395;28;20368;-49
2022/01/11 12:37:44;;;;;;;4.90;2.50;;;8.10;98.10;;;;;;5006203;28;20080;-50
2022/01/11 12:40:29;;;;;;;10.40;2.92;;;8.10;98.00;;;;;;5008455;28;20044;-50
2022/01/11 12:43:02;;;;;;;5.65;2.92;;;8.10;98.00;;;;;;5009605;28;20040;-50
2022/01/11 12:45:58;;;;;;;5.95;2.83;;;8.10;98.00;;;;;;5008435;28;20034;-50
2022/01/11 12:48:42;;;;;;;5.35;2.22;;;8.10;98.00;;;;;;5011035;28;20033;-49
2022/01/11 12:51:09;;;;;;;5.80;2.63;;;8.10;98.00;;;;;;5011007;28;20270;-50
2022/01/11 12:53:35;;;;;;;4.78;2.88;;;8.10;98.00;;;;;;5009434;28;20048;-49
2022/01/11 12:56:01;;;;;;;5.13;2.55;;;8.10;98.00;;;;;;5011554;28;20103;-49
2022/01/11 12:58:28;;;;;;;7.65;2.60;;;8.10;98.00;;;;;;5011225;28;20368;-50